Terminal Aerodrome Forecast
Issued by NWS Raleigh/Durham, NC

Home | Current Version | Previous Version | Text Only | Print | Product List | Glossary On
Versions: 1 2 3 4 5 6 7 8 9 10 11 12 13 14 15 16 17 18 19 20 21 22 23 24 25 26 27 28 29 30 31 32
000
FTUS42 KRAH 181734 AAD
TAFGSO
TAF AMD
KGSO 181734Z 1818/1918 25005KT 5SM BR SCT090
     FM181900 24004KT P6SM SCT100
     FM190300 VRB02KT 2SM BR SCT025
     FM190600 VRB02KT 1SM BR SCT005
     FM191400 VRB03KT P6SM FEW250=

USA.gov is the U.S. government's official web portal to all federal, state and local government web resources and services.